sensor_id;sensor_type;location;lat;lon;timestamp;P1;durP1;ratioP1;P2;durP2;ratioP2
4527;SDS011;62320;51.520;6.818;2022-11-20T00:04:50;28.77;;;13.73;;
4527;SDS011;62320;51.520;6.818;2022-11-20T00:14:52;29.40;;;14.43;;
4527;SDS011;62320;51.520;6.818;2022-11-20T00:24:53;19.60;;;9.57;;
4527;SDS011;62320;51.520;6.818;2022-11-20T00:34:54;37.75;;;17.35;;
4527;SDS011;62320;51.520;6.818;2022-11-20T00:44:56;33.47;;;15.60;;
4527;SDS011;62320;51.520;6.818;2022-11-20T00:54:57;32.13;;;15.87;;
4527;SDS011;62320;51.520;6.818;2022-11-20T01:04:58;26.15;;;11.25;;
4527;SDS011;62320;51.520;6.818;2022-11-20T01:15:00;27.47;;;12.43;;
4527;SDS011;62320;51.520;6.818;2022-11-20T01:25:01;28.20;;;11.33;;
4527;SDS011;62320;51.520;6.818;2022-11-20T01:35:03;22.05;;;10.70;;
4527;SDS011;62320;51.520;6.818;2022-11-20T01:55:44;22.03;;;9.30;;
4527;SDS011;62320;51.520;6.818;2022-11-20T02:06:53;23.33;;;10.80;;
4527;SDS011;62320;51.520;6.818;2022-11-20T02:16:44;18.27;;;7.68;;
4527;SDS011;62320;51.520;6.818;2022-11-20T02:26:54;20.80;;;9.43;;
4527;SDS011;62320;51.520;6.818;2022-11-20T02:36:59;18.47;;;7.90;;
4527;SDS011;62320;51.520;6.818;2022-11-20T02:47:01;18.25;;;7.85;;
4527;SDS011;62320;51.520;6.818;2022-11-20T02:57:02;20.40;;;7.80;;
4527;SDS011;62320;51.520;6.818;2022-11-20T03:07:04;20.83;;;8.73;;
4527;SDS011;62320;51.520;6.818;2022-11-20T03:17:05;22.92;;;10.10;;
4527;SDS011;62320;51.520;6.818;2022-11-20T03:27:07;26.02;;;10.32;;
4527;SDS011;62320;51.520;6.818;2022-11-20T03:37:08;18.20;;;8.27;;
4527;SDS011;62320;51.520;6.818;2022-11-20T03:47:10;22.03;;;10.37;;
4527;SDS011;62320;51.520;6.818;2022-11-20T03:57:11;26.38;;;11.30;;
4527;SDS011;62320;51.520;6.818;2022-11-20T04:07:13;32.77;;;12.37;;
4527;SDS011;62320;51.520;6.818;2022-11-20T04:17:14;34.03;;;12.83;;
4527;SDS011;62320;51.520;6.818;2022-11-20T04:27:16;27.23;;;12.52;;
4527;SDS011;62320;51.520;6.818;2022-11-20T04:37:17;32.23;;;12.30;;
4527;SDS011;62320;51.520;6.818;2022-11-20T04:47:18;30.17;;;13.03;;
4527;SDS011;62320;51.520;6.818;2022-11-20T04:57:20;30.02;;;12.88;;
4527;SDS011;62320;51.520;6.818;2022-11-20T05:07:21;27.30;;;11.82;;
4527;SDS011;62320;51.520;6.818;2022-11-20T05:17:23;26.23;;;12.63;;
4527;SDS011;62320;51.520;6.818;2022-11-20T05:27:24;26.70;;;10.87;;
4527;SDS011;62320;51.520;6.818;2022-11-20T05:37:25;28.98;;;13.38;;
4527;SDS011;62320;51.520;6.818;2022-11-20T05:47:28;26.97;;;12.10;;
4527;SDS011;62320;51.520;6.818;2022-11-20T05:57:34;24.17;;;10.60;;
4527;SDS011;62320;51.520;6.818;2022-11-20T06:07:35;27.70;;;12.98;;
4527;SDS011;62320;51.520;6.818;2022-11-20T06:17:36;26.90;;;11.60;;
4527;SDS011;62320;51.520;6.818;2022-11-20T06:27:38;28.50;;;12.10;;
4527;SDS011;62320;51.520;6.818;2022-11-20T06:37:39;29.98;;;13.38;;
4527;SDS011;62320;51.520;6.818;2022-11-20T06:47:40;23.40;;;11.68;;
4527;SDS011;62320;51.520;6.818;2022-11-20T06:57:42;26.87;;;12.57;;
4527;SDS011;62320;51.520;6.818;2022-11-20T07:07:43;30.83;;;14.17;;
4527;SDS011;62320;51.520;6.818;2022-11-20T07:17:45;29.40;;;13.38;;
4527;SDS011;62320;51.520;6.818;2022-11-20T07:27:46;29.17;;;13.40;;
4527;SDS011;62320;51.520;6.818;2022-11-20T07:37:48;30.30;;;15.07;;
4527;SDS011;62320;51.520;6.818;2022-11-20T07:47:50;33.92;;;14.20;;
4527;SDS011;62320;51.520;6.818;2022-11-20T07:57:55;27.27;;;12.13;;
4527;SDS011;62320;51.520;6.818;2022-11-20T08:07:58;40.87;;;18.30;;
4527;SDS011;62320;51.520;6.818;2022-11-20T08:18:00;30.27;;;13.68;;
4527;SDS011;62320;51.520;6.818;2022-11-20T08:28:25;45.88;;;19.27;;
4527;SDS011;62320;51.520;6.818;2022-11-20T08:38:26;45.67;;;17.70;;
4527;SDS011;62320;51.520;6.818;2022-11-20T08:48:28;49.57;;;21.20;;
4527;SDS011;62320;51.520;6.818;2022-11-20T08:58:29;37.72;;;18.17;;
4527;SDS011;62320;51.520;6.818;2022-11-20T09:08:31;35.10;;;16.03;;
4527;SDS011;62320;51.520;6.818;2022-11-20T09:18:34;35.07;;;15.47;;
4527;SDS011;62320;51.520;6.818;2022-11-20T09:28:39;26.70;;;12.25;;
4527;SDS011;62320;51.520;6.818;2022-11-20T09:38:41;26.13;;;11.07;;
4527;SDS011;62320;51.520;6.818;2022-11-20T09:59:14;33.13;;;14.77;;
4527;SDS011;62320;51.520;6.818;2022-11-20T10:09:40;20.98;;;10.32;;
4527;SDS011;62320;51.520;6.818;2022-11-20T10:20:00;26.90;;;11.37;;
4527;SDS011;62320;51.520;6.818;2022-11-20T10:30:29;34.27;;;14.80;;
4527;SDS011;62320;51.520;6.818;2022-11-20T10:40:34;37.25;;;15.98;;
4527;SDS011;62320;51.520;6.818;2022-11-20T10:50:41;33.67;;;13.93;;
4527;SDS011;62320;51.520;6.818;2022-11-20T11:01:17;31.63;;;12.90;;
4527;SDS011;62320;51.520;6.818;2022-11-20T11:11:21;42.65;;;17.60;;
4527;SDS011;62320;51.520;6.818;2022-11-20T11:21:25;40.97;;;17.30;;
4527;SDS011;62320;51.520;6.818;2022-11-20T11:31:28;32.93;;;13.97;;
4527;SDS011;62320;51.520;6.818;2022-11-20T11:41:32;31.30;;;13.48;;
4527;SDS011;62320;51.520;6.818;2022-11-20T12:02:15;28.47;;;10.83;;
4527;SDS011;62320;51.520;6.818;2022-11-20T12:12:41;28.43;;;12.23;;
4527;SDS011;62320;51.520;6.818;2022-11-20T12:22:52;28.40;;;10.75;;
4527;SDS011;62320;51.520;6.818;2022-11-20T12:33:20;28.70;;;11.40;;
4527;SDS011;62320;51.520;6.818;2022-11-20T12:43:50;29.10;;;11.27;;
4527;SDS011;62320;51.520;6.818;2022-11-20T13:25:40;24.42;;;10.05;;
4527;SDS011;62320;51.520;6.818;2022-11-20T13:35:42;23.63;;;8.23;;
4527;SDS011;62320;51.520;6.818;2022-11-20T13:45:53;29.63;;;11.60;;
4527;SDS011;62320;51.520;6.818;2022-11-20T14:06:28;27.17;;;10.05;;
4527;SDS011;62320;51.520;6.818;2022-11-20T14:16:33;30.80;;;12.33;;
4527;SDS011;62320;51.520;6.818;2022-11-20T14:26:38;30.13;;;11.70;;
4527;SDS011;62320;51.520;6.818;2022-11-20T14:36:43;32.00;;;12.40;;
4527;SDS011;62320;51.520;6.818;2022-11-20T14:46:45;33.70;;;12.30;;
4527;SDS011;62320;51.520;6.818;2022-11-20T14:56:57;27.20;;;10.73;;
4527;SDS011;62320;51.520;6.818;2022-11-20T15:07:00;26.38;;;10.63;;
4527;SDS011;62320;51.520;6.818;2022-11-20T15:17:01;26.83;;;8.98;;
4527;SDS011;62320;51.520;6.818;2022-11-20T15:27:03;13.70;;;5.43;;
4527;SDS011;62320;51.520;6.818;2022-11-20T15:37:04;15.43;;;6.87;;
4527;SDS011;62320;51.520;6.818;2022-11-20T15:47:06;26.17;;;10.95;;
4527;SDS011;62320;51.520;6.818;2022-11-20T15:57:10;32.53;;;13.30;;
4527;SDS011;62320;51.520;6.818;2022-11-20T16:07:12;30.37;;;12.83;;
4527;SDS011;62320;51.520;6.818;2022-11-20T16:17:14;27.25;;;11.50;;
4527;SDS011;62320;51.520;6.818;2022-11-20T16:27:15;32.67;;;14.00;;
4527;SDS011;62320;51.520;6.818;2022-11-20T16:37:17;22.00;;;9.40;;
4527;SDS011;62320;51.520;6.818;2022-11-20T16:47:18;32.10;;;12.38;;
4527;SDS011;62320;51.520;6.818;2022-11-20T16:57:20;29.65;;;10.52;;
4527;SDS011;62320;51.520;6.818;2022-11-20T17:07:21;34.17;;;13.63;;
4527;SDS011;62320;51.520;6.818;2022-11-20T17:17:23;31.00;;;11.43;;
4527;SDS011;62320;51.520;6.818;2022-11-20T17:27:24;23.67;;;10.10;;
4527;SDS011;62320;51.520;6.818;2022-11-20T17:37:26;31.37;;;12.47;;
4527;SDS011;62320;51.520;6.818;2022-11-20T17:47:28;25.40;;;10.23;;
4527;SDS011;62320;51.520;6.818;2022-11-20T17:57:29;21.17;;;9.73;;
4527;SDS011;62320;51.520;6.818;2022-11-20T18:07:51;29.40;;;12.00;;
4527;SDS011;62320;51.520;6.818;2022-11-20T18:17:53;25.83;;;10.13;;
4527;SDS011;62320;51.520;6.818;2022-11-20T18:27:54;30.17;;;11.90;;
4527;SDS011;62320;51.520;6.818;2022-11-20T18:37:56;29.17;;;11.75;;
4527;SDS011;62320;51.520;6.818;2022-11-20T18:47:57;26.17;;;11.07;;
4527;SDS011;62320;51.520;6.818;2022-11-20T18:57:59;20.00;;;9.60;;
4527;SDS011;62320;51.520;6.818;2022-11-20T19:08:00;20.50;;;9.10;;
4527;SDS011;62320;51.520;6.818;2022-11-20T19:18:01;16.30;;;8.53;;
4527;SDS011;62320;51.520;6.818;2022-11-20T19:28:03;14.40;;;6.80;;
4527;SDS011;62320;51.520;6.818;2022-11-20T19:38:04;14.02;;;7.50;;
4527;SDS011;62320;51.520;6.818;2022-11-20T19:48:06;19.87;;;10.60;;
4527;SDS011;62320;51.520;6.818;2022-11-20T19:58:08;17.07;;;7.63;;
4527;SDS011;62320;51.520;6.818;2022-11-20T20:08:10;16.90;;;7.13;;
4527;SDS011;62320;51.520;6.818;2022-11-20T20:18:17;18.30;;;8.07;;
4527;SDS011;62320;51.520;6.818;2022-11-20T20:28:18;25.07;;;11.57;;
4527;SDS011;62320;51.520;6.818;2022-11-20T20:38:19;23.57;;;11.20;;
4527;SDS011;62320;51.520;6.818;2022-11-20T20:48:22;32.40;;;13.45;;
4527;SDS011;62320;51.520;6.818;2022-11-20T20:58:25;38.53;;;15.60;;
4527;SDS011;62320;51.520;6.818;2022-11-20T21:08:27;42.97;;;16.57;;
4527;SDS011;62320;51.520;6.818;2022-11-20T21:18:28;32.75;;;13.30;;
4527;SDS011;62320;51.520;6.818;2022-11-20T21:28:30;39.67;;;16.20;;
4527;SDS011;62320;51.520;6.818;2022-11-20T21:38:32;36.47;;;14.73;;
4527;SDS011;62320;51.520;6.818;2022-11-20T21:48:36;34.85;;;14.68;;
4527;SDS011;62320;51.520;6.818;2022-11-20T21:58:40;33.65;;;12.98;;
4527;SDS011;62320;51.520;6.818;2022-11-20T22:08:43;28.60;;;12.43;;
4527;SDS011;62320;51.520;6.818;2022-11-20T22:18:45;39.67;;;14.97;;
4527;SDS011;62320;51.520;6.818;2022-11-20T22:28:51;35.42;;;14.65;;
4527;SDS011;62320;51.520;6.818;2022-11-20T22:38:54;32.57;;;14.37;;
4527;SDS011;62320;51.520;6.818;2022-11-20T22:49:00;33.97;;;13.53;;
4527;SDS011;62320;51.520;6.818;2022-11-20T22:59:03;35.70;;;14.30;;
4527;SDS011;62320;51.520;6.818;2022-11-20T23:09:05;41.57;;;14.90;;
4527;SDS011;62320;51.520;6.818;2022-11-20T23:19:09;25.67;;;11.13;;
4527;SDS011;62320;51.520;6.818;2022-11-20T23:29:13;33.25;;;13.32;;
4527;SDS011;62320;51.520;6.818;2022-11-20T23:39:14;33.00;;;13.77;;
4527;SDS011;62320;51.520;6.818;2022-11-20T23:49:16;29.97;;;13.00;;
4527;SDS011;62320;51.520;6.818;2022-11-20T23:59:18;32.93;;;13.20;;
